Seaexpressii — HO4619 — position and weather

sailwx.info

Track history (hours):
 
Tides and Currents Weather Stations Pressure Air Temp Water Temp Dewpoint Dewpoint Depression Visibility Wind Speed Wind Dir Waves Ship Positions

Seaexpressii

Last reported at 2014-Nov-29 01:32 UTC. Time now 2014-Nov-29 06:21 UTC.
Position N 25°53' W 079°41'.

Length 37 m; draft 2 m.

Type: Ship. MMSI: 356449000.

Date/timePositionNaut miles runAvg speedWind from/ knotsBaromVisibWave heightAir tempDewpointWater temp
2014-Nov-29 01:32N 25°53' W 079°41'8 8.2
2014-Nov-29 00:33N 25°57' W 079°49'8 8.0
2014-Nov-28 23:33N 26°01' W 079°57'9 9.3
2014-Nov-28 22:33N 26°06' W 080°06'3 2.7
2014-Nov-28 21:33N 26°04' W 080°08'0 0.0
2014-Nov-28 20:33N 26°04' W 080°08'0 0.0
2014-Nov-28 19:33N 26°04' W 080°08'0 0.0
2014-Nov-28 18:33N 26°04' W 080°08'0 0.0
2014-Nov-28 17:33N 26°04' W 080°08'0 0.0
2014-Nov-28 16:33N 26°04' W 080°08'0 0.0
2014-Nov-28 15:33N 26°04' W 080°08'0 0.0
2014-Nov-28 14:33N 26°04' W 080°08'3 2.8
2014-Nov-28 13:33N 26°06' W 080°06'9 9.0
2014-Nov-28 12:33N 26°03' W 079°56'9 9.0
2014-Nov-28 11:33N 26°00' W 079°46'9 9.4
2014-Nov-28 10:33N 25°58' W 079°36'  
2014-Nov-26 01:17N 26°05' W 079°36'7 9.3
2014-Nov-26 00:33N 26°05' W 079°43'9 8.7
2014-Nov-25 23:33N 26°06' W 079°53'9 9.2
2014-Nov-25 22:33N 26°06' W 080°03'5 4.8
2014-Nov-25 21:33N 26°04' W 080°08'0 0.0
2014-Nov-25 20:33N 26°04' W 080°08'0 0.0
2014-Nov-25 19:32N 26°04' W 080°08'0 0.0
2014-Nov-25 18:33N 26°04' W 080°08'0 0.0
2014-Nov-25 17:33N 26°04' W 080°08'0 0.0
2014-Nov-25 16:33N 26°04' W 080°08'3 3.4
2014-Nov-25 15:33N 26°05' W 080°05'1110.9
2014-Nov-25 14:33N 26°02' W 079°53'1111.2
2014-Nov-25 13:33N 25°58' W 079°41'1110.5
2014-Nov-25 12:29N 25°55' W 079°29'  
2014-Nov-21 19:23N 25°57' W 079°34'5 6.1
2014-Nov-21 18:34N 25°58' W 079°39'6 6.1
2014-Nov-21 17:33N 26°01' W 079°46'6 5.9
2014-Nov-21 16:33N 26°04' W 079°51'5 5.5
2014-Nov-21 15:33N 26°05' W 079°57'6 6.2
2014-Nov-21 14:33N 26°06' W 080°04'4 4.1
2014-Nov-21 13:33N 26°04' W 080°08'0 0.0
2014-Nov-21 12:33N 26°04' W 080°08'0 0.0
2014-Nov-21 11:33N 26°04' W 080°08'0 0.0
2014-Nov-21 10:33N 26°04' W 080°08'0 0.0
2014-Nov-21 09:33N 26°04' W 080°08'0 0.0
2014-Nov-21 08:33N 26°04' W 080°08'0 0.0
2014-Nov-21 07:33N 26°04' W 080°08'0 0.0
2014-Nov-21 06:33N 26°04' W 080°08'0 0.0
2014-Nov-21 05:33N 26°04' W 080°08'0 0.1
2014-Nov-21 04:33N 26°04' W 080°08'0 0.0
2014-Nov-21 03:33N 26°04' W 080°08'0 0.0
2014-Nov-21 02:33N 26°04' W 080°08'0 0.4
2014-Nov-21 01:33N 26°04' W 080°07'6 6.5
2014-Nov-21 00:33N 26°07' W 080°01'9 8.7
2014-Nov-20 23:33N 26°10' W 079°52'9 9.0
2014-Nov-20 22:33N 26°12' W 079°42'9 9.4
2014-Nov-20 21:33N 26°15' W 079°32'11 0.6
2014-Nov-20 04:33N 26°25' W 079°38'9 8.9
2014-Nov-20 03:33N 26°20' W 079°47'9 8.9
2014-Nov-20 02:33N 26°14' W 079°54'9 8.8
2014-Nov-20 01:33N 26°08' W 080°01'7 6.8
2014-Nov-20 00:34N 26°04' W 080°07'1 0.9
2014-Nov-19 23:33N 26°04' W 080°08'0 0.0
2014-Nov-19 22:33N 26°04' W 080°08'0 0.0
2014-Nov-19 21:33N 26°04' W 080°08'0 0.0
2014-Nov-19 20:33N 26°04' W 080°08'0 0.0
2014-Nov-19 19:31N 26°04' W 080°08'0 0.0
2014-Nov-19 18:33N 26°04' W 080°08'0 0.0
2014-Nov-19 17:33N 26°04' W 080°08'0 0.0
2014-Nov-19 16:33N 26°04' W 080°08'0 0.0
2014-Nov-19 15:33N 26°04' W 080°08'0 0.0
2014-Nov-19 14:33N 26°04' W 080°08'0 0.0
2014-Nov-19 13:33N 26°04' W 080°08'0 0.0
2014-Nov-19 12:33N 26°04' W 080°08'0 0.0
2014-Nov-19 11:33N 26°04' W 080°08'0 0.0
2014-Nov-19 10:33N 26°04' W 080°08'0 0.0
2014-Nov-19 09:33N 26°04' W 080°08'0 0.0
2014-Nov-19 08:33N 26°04' W 080°08'0 0.0
2014-Nov-19 07:33N 26°04' W 080°08'0 0.0
2014-Nov-19 06:32N 26°04' W 080°08'0 0.0
2014-Nov-19 05:32N 26°04' W 080°08'0 0.0
2014-Nov-19 04:33N 26°04' W 080°08'0 0.0
2014-Nov-19 03:33N 26°04' W 080°08'0 0.0
2014-Nov-19 02:33N 26°04' W 080°08'0 0.1
2014-Nov-19 01:33N 26°04' W 080°08'  
Track history (hours):
 
Tides and Currents Weather Stations Pressure Air Temp Water Temp Dewpoint Dewpoint Depression Visibility Wind Speed Wind Dir Waves Ship Positions

Seaexpressii

Last reported at 2014-Nov-29 01:32 UTC. Time now 2014-Nov-29 06:21 UTC.
Position N 25°53' W 079°41'.

Length 37 m; draft 2 m.

Type: Ship. MMSI: 356449000.

Date/timePositionNaut miles runAvg speedWind from/ knotsBaromVisibWave heightAir tempDewpointWater temp
2014-Nov-29 01:32N 25°53' W 079°41'8 8.2
2014-Nov-29 00:33N 25°57' W 079°49'8 8.0
2014-Nov-28 23:33N 26°01' W 079°57'9 9.3
2014-Nov-28 22:33N 26°06' W 080°06'3 2.7
2014-Nov-28 21:33N 26°04' W 080°08'0 0.0
2014-Nov-28 20:33N 26°04' W 080°08'0 0.0
2014-Nov-28 19:33N 26°04' W 080°08'0 0.0
2014-Nov-28 18:33N 26°04' W 080°08'0 0.0
2014-Nov-28 17:33N 26°04' W 080°08'0 0.0
2014-Nov-28 16:33N 26°04' W 080°08'0 0.0
2014-Nov-28 15:33N 26°04' W 080°08'0 0.0
2014-Nov-28 14:33N 26°04' W 080°08'3 2.8
2014-Nov-28 13:33N 26°06' W 080°06'9 9.0
2014-Nov-28 12:33N 26°03' W 079°56'9 9.0
2014-Nov-28 11:33N 26°00' W 079°46'9 9.4
2014-Nov-28 10:33N 25°58' W 079°36'  
2014-Nov-26 01:17N 26°05' W 079°36'7 9.3
2014-Nov-26 00:33N 26°05' W 079°43'9 8.7
2014-Nov-25 23:33N 26°06' W 079°53'9 9.2
2014-Nov-25 22:33N 26°06' W 080°03'5 4.8
2014-Nov-25 21:33N 26°04' W 080°08'0 0.0
2014-Nov-25 20:33N 26°04' W 080°08'0 0.0
2014-Nov-25 19:32N 26°04' W 080°08'0 0.0
2014-Nov-25 18:33N 26°04' W 080°08'0 0.0
2014-Nov-25 17:33N 26°04' W 080°08'0 0.0
2014-Nov-25 16:33N 26°04' W 080°08'3 3.4
2014-Nov-25 15:33N 26°05' W 080°05'1110.9
2014-Nov-25 14:33N 26°02' W 079°53'1111.2
2014-Nov-25 13:33N 25°58' W 079°41'1110.5
2014-Nov-25 12:29N 25°55' W 079°29'  
2014-Nov-21 19:23N 25°57' W 079°34'5 6.1
2014-Nov-21 18:34N 25°58' W 079°39'6 6.1
2014-Nov-21 17:33N 26°01' W 079°46'6 5.9
2014-Nov-21 16:33N 26°04' W 079°51'5 5.5
2014-Nov-21 15:33N 26°05' W 079°57'6 6.2
2014-Nov-21 14:33N 26°06' W 080°04'4 4.1
2014-Nov-21 13:33N 26°04' W 080°08'0 0.0
2014-Nov-21 12:33N 26°04' W 080°08'0 0.0
2014-Nov-21 11:33N 26°04' W 080°08'0 0.0
2014-Nov-21 10:33N 26°04' W 080°08'0 0.0
2014-Nov-21 09:33N 26°04' W 080°08'0 0.0
2014-Nov-21 08:33N 26°04' W 080°08'0 0.0
2014-Nov-21 07:33N 26°04' W 080°08'0 0.0
2014-Nov-21 06:33N 26°04' W 080°08'0 0.0
2014-Nov-21 05:33N 26°04' W 080°08'0 0.1
2014-Nov-21 04:33N 26°04' W 080°08'0 0.0
2014-Nov-21 03:33N 26°04' W 080°08'0 0.0
2014-Nov-21 02:33N 26°04' W 080°08'0 0.4
2014-Nov-21 01:33N 26°04' W 080°07'6 6.5
2014-Nov-21 00:33N 26°07' W 080°01'9 8.7
2014-Nov-20 23:33N 26°10' W 079°52'9 9.0
2014-Nov-20 22:33N 26°12' W 079°42'9 9.4
2014-Nov-20 21:33N 26°15' W 079°32'11 0.6
2014-Nov-20 04:33N 26°25' W 079°38'9 8.9
2014-Nov-20 03:33N 26°20' W 079°47'9 8.9
2014-Nov-20 02:33N 26°14' W 079°54'9 8.8
2014-Nov-20 01:33N 26°08' W 080°01'7 6.8
2014-Nov-20 00:34N 26°04' W 080°07'1 0.9
2014-Nov-19 23:33N 26°04' W 080°08'0 0.0
2014-Nov-19 22:33N 26°04' W 080°08'0 0.0
2014-Nov-19 21:33N 26°04' W 080°08'0 0.0
2014-Nov-19 20:33N 26°04' W 080°08'0 0.0
2014-Nov-19 19:31N 26°04' W 080°08'0 0.0
2014-Nov-19 18:33N 26°04' W 080°08'0 0.0
2014-Nov-19 17:33N 26°04' W 080°08'0 0.0
2014-Nov-19 16:33N 26°04' W 080°08'0 0.0
2014-Nov-19 15:33N 26°04' W 080°08'0 0.0
2014-Nov-19 14:33N 26°04' W 080°08'0 0.0
2014-Nov-19 13:33N 26°04' W 080°08'0 0.0
2014-Nov-19 12:33N 26°04' W 080°08'0 0.0
2014-Nov-19 11:33N 26°04' W 080°08'0 0.0
2014-Nov-19 10:33N 26°04' W 080°08'0 0.0
2014-Nov-19 09:33N 26°04' W 080°08'0 0.0
2014-Nov-19 08:33N 26°04' W 080°08'0 0.0
2014-Nov-19 07:33N 26°04' W 080°08'0 0.0
2014-Nov-19 06:32N 26°04' W 080°08'0 0.0
2014-Nov-19 05:32N 26°04' W 080°08'0 0.0
2014-Nov-19 04:33N 26°04' W 080°08'0 0.0
2014-Nov-19 03:33N 26°04' W 080°08'0 0.0
2014-Nov-19 02:33N 26°04' W 080°08'0 0.1
2014-Nov-19 01:33N 26°04' W 080°08'  

Dump ship's entire track history